PILOTS ONLINE: 401    ATC ONLINE: 61

KTRM - Jacqueline Cochran Regional Airport

Location

City Palm Springs
Country  United States
Latitude 33° 37' 36" N
Longitude 116° 9' 36" W
Elevation -115 ft
Type Medium Airport

Runways

12/30 4995 ft / 100 ft
17/35 8500 ft / 150 ft

Weather

METAR
2014/07/25 11:52
KTRM 251152Z AUTO 20005KT 10SM BKN110 31/20 A2971 RMK AO2 SLP065 T03110200 10378 20306 53011 TSNO
TAF
2014/07/25 12:27
TAF KTRM 251124Z 2512/2612 VRB06KT P6SM SCT250 
     FM252100 14010KT P6SM SCT250 
     FM260000 VRB06KT P6SM SCT250 
     FM260300 33012KT P6SM SCT250 
     FM261000 VRB06KT P6SM SCT250

Outbound flights

Inbound flights